sensor_id;sensor_type;location;lat;lon;timestamp;P1;durP1;ratioP1;P2;durP2;ratioP2
11473;SDS011;5793;52.238;13.438;2022-08-19T00:01:26;18.38;;;15.20;;
11473;SDS011;5793;52.238;13.438;2022-08-19T00:03:56;17.50;;;15.88;;
11473;SDS011;5793;52.238;13.438;2022-08-19T00:06:24;19.55;;;17.52;;
11473;SDS011;5793;52.238;13.438;2022-08-19T00:08:52;18.23;;;16.40;;
11473;SDS011;5793;52.238;13.438;2022-08-19T00:11:21;17.85;;;16.15;;
11473;SDS011;5793;52.238;13.438;2022-08-19T00:13:52;17.95;;;16.10;;
11473;SDS011;5793;52.238;13.438;2022-08-19T00:16:22;17.98;;;16.17;;
11473;SDS011;5793;52.238;13.438;2022-08-19T00:18:52;20.80;;;16.85;;
11473;SDS011;5793;52.238;13.438;2022-08-19T00:21:21;18.77;;;16.83;;
11473;SDS011;5793;52.238;13.438;2022-08-19T00:23:49;18.35;;;16.38;;
11473;SDS011;5793;52.238;13.438;2022-08-19T00:26:17;18.52;;;16.27;;
11473;SDS011;5793;52.238;13.438;2022-08-19T00:28:45;19.10;;;17.20;;
11473;SDS011;5793;52.238;13.438;2022-08-19T00:31:14;19.58;;;16.95;;
11473;SDS011;5793;52.238;13.438;2022-08-19T00:33:42;18.95;;;17.20;;
11473;SDS011;5793;52.238;13.438;2022-08-19T00:36:11;17.27;;;15.63;;
11473;SDS011;5793;52.238;13.438;2022-08-19T00:38:39;18.85;;;16.67;;
11473;SDS011;5793;52.238;13.438;2022-08-19T00:41:09;18.73;;;16.95;;
11473;SDS011;5793;52.238;13.438;2022-08-19T00:43:39;20.33;;;17.98;;
11473;SDS011;5793;52.238;13.438;2022-08-19T00:46:07;19.83;;;17.60;;
11473;SDS011;5793;52.238;13.438;2022-08-19T00:48:37;18.23;;;16.52;;
11473;SDS011;5793;52.238;13.438;2022-08-19T00:51:05;18.50;;;16.70;;
11473;SDS011;5793;52.238;13.438;2022-08-19T00:53:33;18.90;;;17.02;;
11473;SDS011;5793;52.238;13.438;2022-08-19T00:56:01;19.73;;;17.85;;
11473;SDS011;5793;52.238;13.438;2022-08-19T00:58:32;20.25;;;18.15;;
11473;SDS011;5793;52.238;13.438;2022-08-19T01:01:03;20.23;;;18.10;;
11473;SDS011;5793;52.238;13.438;2022-08-19T01:03:31;19.23;;;17.33;;
11473;SDS011;5793;52.238;13.438;2022-08-19T01:06:20;20.15;;;18.23;;
11473;SDS011;5793;52.238;13.438;2022-08-19T01:08:48;20.58;;;18.48;;
11473;SDS011;5793;52.238;13.438;2022-08-19T01:11:16;21.88;;;19.58;;
11473;SDS011;5793;52.238;13.438;2022-08-19T01:13:44;21.60;;;19.40;;
11473;SDS011;5793;52.238;13.438;2022-08-19T01:16:16;21.92;;;19.50;;
11473;SDS011;5793;52.238;13.438;2022-08-19T01:18:45;21.67;;;18.75;;
11473;SDS011;5793;52.238;13.438;2022-08-19T01:21:16;20.15;;;18.27;;
11473;SDS011;5793;52.238;13.438;2022-08-19T01:23:50;20.08;;;18.17;;
11473;SDS011;5793;52.238;13.438;2022-08-19T01:26:18;20.55;;;18.42;;
11473;SDS011;5793;52.238;13.438;2022-08-19T01:28:51;22.90;;;19.27;;
11473;SDS011;5793;52.238;13.438;2022-08-19T01:31:26;21.27;;;18.20;;
11473;SDS011;5793;52.238;13.438;2022-08-19T01:33:58;19.02;;;17.23;;
11473;SDS011;5793;52.238;13.438;2022-08-19T01:36:29;19.60;;;17.70;;
11473;SDS011;5793;52.238;13.438;2022-08-19T01:38:59;18.95;;;17.13;;
11473;SDS011;5793;52.238;13.438;2022-08-19T01:41:28;20.60;;;18.42;;
11473;SDS011;5793;52.238;13.438;2022-08-19T01:43:56;19.98;;;17.88;;
11473;SDS011;5793;52.238;13.438;2022-08-19T01:46:43;21.20;;;19.05;;
11473;SDS011;5793;52.238;13.438;2022-08-19T01:49:13;19.75;;;17.80;;
11473;SDS011;5793;52.238;13.438;2022-08-19T01:51:42;20.25;;;18.20;;
11473;SDS011;5793;52.238;13.438;2022-08-19T01:54:11;20.85;;;18.85;;
11473;SDS011;5793;52.238;13.438;2022-08-19T01:56:53;21.30;;;18.92;;
11473;SDS011;5793;52.238;13.438;2022-08-19T01:59:24;21.13;;;19.13;;
11473;SDS011;5793;52.238;13.438;2022-08-19T02:01:52;22.58;;;20.48;;
11473;SDS011;5793;52.238;13.438;2022-08-19T02:04:20;22.48;;;20.08;;
11473;SDS011;5793;52.238;13.438;2022-08-19T02:06:49;22.67;;;20.48;;
11473;SDS011;5793;52.238;13.438;2022-08-19T02:09:18;22.48;;;20.13;;
11473;SDS011;5793;52.238;13.438;2022-08-19T02:11:46;20.42;;;18.30;;
11473;SDS011;5793;52.238;13.438;2022-08-19T02:14:14;21.70;;;19.55;;
11473;SDS011;5793;52.238;13.438;2022-08-19T02:16:42;20.58;;;18.50;;
11473;SDS011;5793;52.238;13.438;2022-08-19T02:19:09;20.65;;;18.67;;
11473;SDS011;5793;52.238;13.438;2022-08-19T02:21:37;20.63;;;18.65;;
11473;SDS011;5793;52.238;13.438;2022-08-19T02:24:05;22.55;;;20.35;;
11473;SDS011;5793;52.238;13.438;2022-08-19T02:26:35;21.48;;;19.27;;
11473;SDS011;5793;52.238;13.438;2022-08-19T02:29:03;20.88;;;18.67;;
11473;SDS011;5793;52.238;13.438;2022-08-19T02:31:31;21.35;;;19.25;;
11473;SDS011;5793;52.238;13.438;2022-08-19T02:33:59;19.80;;;18.00;;
11473;SDS011;5793;52.238;13.438;2022-08-19T02:36:27;20.20;;;18.20;;
11473;SDS011;5793;52.238;13.438;2022-08-19T02:38:56;21.00;;;18.95;;
11473;SDS011;5793;52.238;13.438;2022-08-19T02:41:25;20.98;;;18.88;;
11473;SDS011;5793;52.238;13.438;2022-08-19T02:43:55;20.83;;;18.85;;
11473;SDS011;5793;52.238;13.438;2022-08-19T02:46:45;19.17;;;17.38;;
11473;SDS011;5793;52.238;13.438;2022-08-19T02:49:18;19.92;;;17.92;;
11473;SDS011;5793;52.238;13.438;2022-08-19T02:51:46;20.60;;;18.42;;
11473;SDS011;5793;52.238;13.438;2022-08-19T02:54:14;20.13;;;18.13;;
11473;SDS011;5793;52.238;13.438;2022-08-19T02:56:43;21.98;;;19.67;;
11473;SDS011;5793;52.238;13.438;2022-08-19T02:59:12;21.35;;;18.70;;
11473;SDS011;5793;52.238;13.438;2022-08-19T03:01:40;20.52;;;18.58;;
11473;SDS011;5793;52.238;13.438;2022-08-19T03:04:09;22.10;;;19.42;;
11473;SDS011;5793;52.238;13.438;2022-08-19T03:06:39;21.13;;;18.92;;
11473;SDS011;5793;52.238;13.438;2022-08-19T03:09:09;21.77;;;19.67;;
11473;SDS011;5793;52.238;13.438;2022-08-19T03:11:38;20.08;;;18.23;;
11473;SDS011;5793;52.238;13.438;2022-08-19T03:14:06;19.15;;;17.38;;
11473;SDS011;5793;52.238;13.438;2022-08-19T03:16:41;18.52;;;16.73;;
11473;SDS011;5793;52.238;13.438;2022-08-19T03:19:11;18.23;;;16.52;;
11473;SDS011;5793;52.238;13.438;2022-08-19T03:21:39;19.10;;;17.20;;
11473;SDS011;5793;52.238;13.438;2022-08-19T03:24:11;18.85;;;17.08;;
11473;SDS011;5793;52.238;13.438;2022-08-19T03:26:40;18.83;;;17.05;;
11473;SDS011;5793;52.238;13.438;2022-08-19T03:29:09;18.10;;;16.40;;
11473;SDS011;5793;52.238;13.438;2022-08-19T03:31:40;19.02;;;17.08;;
11473;SDS011;5793;52.238;13.438;2022-08-19T03:34:19;18.42;;;16.58;;
11473;SDS011;5793;52.238;13.438;2022-08-19T03:36:52;19.17;;;17.25;;
11473;SDS011;5793;52.238;13.438;2022-08-19T03:39:21;21.45;;;19.25;;
11473;SDS011;5793;52.238;13.438;2022-08-19T03:41:52;18.15;;;16.45;;
11473;SDS011;5793;52.238;13.438;2022-08-19T03:44:43;20.02;;;17.98;;
11473;SDS011;5793;52.238;13.438;2022-08-19T03:47:13;19.98;;;17.85;;
11473;SDS011;5793;52.238;13.438;2022-08-19T03:49:42;20.13;;;18.08;;
11473;SDS011;5793;52.238;13.438;2022-08-19T03:52:11;21.35;;;19.35;;
11473;SDS011;5793;52.238;13.438;2022-08-19T03:54:39;21.77;;;19.77;;
11473;SDS011;5793;52.238;13.438;2022-08-19T03:57:07;21.17;;;19.17;;
11473;SDS011;5793;52.238;13.438;2022-08-19T03:59:35;21.15;;;19.15;;
11473;SDS011;5793;52.238;13.438;2022-08-19T04:02:05;19.83;;;17.75;;
11473;SDS011;5793;52.238;13.438;2022-08-19T04:04:37;22.35;;;19.98;;
11473;SDS011;5793;52.238;13.438;2022-08-19T04:07:06;21.25;;;19.20;;
11473;SDS011;5793;52.238;13.438;2022-08-19T04:09:36;19.60;;;17.75;;
11473;SDS011;5793;52.238;13.438;2022-08-19T04:12:04;20.73;;;18.60;;
11473;SDS011;5793;52.238;13.438;2022-08-19T04:14:33;19.25;;;17.25;;
11473;SDS011;5793;52.238;13.438;2022-08-19T04:17:02;19.58;;;17.63;;
11473;SDS011;5793;52.238;13.438;2022-08-19T04:19:31;19.17;;;17.33;;
11473;SDS011;5793;52.238;13.438;2022-08-19T04:22:01;20.20;;;18.08;;
11473;SDS011;5793;52.238;13.438;2022-08-19T04:24:30;20.10;;;18.10;;
11473;SDS011;5793;52.238;13.438;2022-08-19T04:26:58;20.65;;;18.45;;
11473;SDS011;5793;52.238;13.438;2022-08-19T04:29:26;20.17;;;17.83;;
11473;SDS011;5793;52.238;13.438;2022-08-19T04:31:56;20.52;;;18.45;;
11473;SDS011;5793;52.238;13.438;2022-08-19T04:34:26;21.00;;;18.80;;
11473;SDS011;5793;52.238;13.438;2022-08-19T04:36:56;21.25;;;19.15;;
11473;SDS011;5793;52.238;13.438;2022-08-19T04:39:27;20.73;;;18.55;;
11473;SDS011;5793;52.238;13.438;2022-08-19T04:42:10;21.13;;;19.02;;
11473;SDS011;5793;52.238;13.438;2022-08-19T04:44:56;21.15;;;19.00;;
11473;SDS011;5793;52.238;13.438;2022-08-19T04:47:25;20.98;;;18.77;;
11473;SDS011;5793;52.238;13.438;2022-08-19T04:50:13;21.67;;;19.25;;
11473;SDS011;5793;52.238;13.438;2022-08-19T04:52:41;22.67;;;20.38;;
11473;SDS011;5793;52.238;13.438;2022-08-19T04:55:11;20.73;;;18.63;;
11473;SDS011;5793;52.238;13.438;2022-08-19T04:57:40;20.83;;;18.90;;
11473;SDS011;5793;52.238;13.438;2022-08-19T05:00:08;23.48;;;19.75;;
11473;SDS011;5793;52.238;13.438;2022-08-19T05:02:37;20.38;;;18.45;;
11473;SDS011;5793;52.238;13.438;2022-08-19T05:05:06;20.25;;;18.15;;
11473;SDS011;5793;52.238;13.438;2022-08-19T05:07:34;18.95;;;17.10;;
11473;SDS011;5793;52.238;13.438;2022-08-19T05:10:03;19.25;;;17.35;;
11473;SDS011;5793;52.238;13.438;2022-08-19T05:12:34;17.92;;;16.10;;
11473;SDS011;5793;52.238;13.438;2022-08-19T05:15:02;18.65;;;16.70;;
11473;SDS011;5793;52.238;13.438;2022-08-19T05:17:31;19.27;;;17.38;;
11473;SDS011;5793;52.238;13.438;2022-08-19T05:20:04;20.80;;;16.98;;
11473;SDS011;5793;52.238;13.438;2022-08-19T05:23:01;17.67;;;16.08;;
11473;SDS011;5793;52.238;13.438;2022-08-19T05:25:45;16.55;;;14.95;;
11473;SDS011;5793;52.238;13.438;2022-08-19T05:28:14;17.60;;;15.82;;
11473;SDS011;5793;52.238;13.438;2022-08-19T05:30:42;16.02;;;14.52;;
11473;SDS011;5793;52.238;13.438;2022-08-19T05:33:12;15.90;;;14.30;;
11473;SDS011;5793;52.238;13.438;2022-08-19T05:35:41;18.38;;;15.50;;
11473;SDS011;5793;52.238;13.438;2022-08-19T05:38:10;18.30;;;16.55;;
11473;SDS011;5793;52.238;13.438;2022-08-19T05:40:39;16.42;;;14.70;;
11473;SDS011;5793;52.238;13.438;2022-08-19T05:43:07;16.70;;;15.02;;
11473;SDS011;5793;52.238;13.438;2022-08-19T05:45:39;15.90;;;14.50;;
11473;SDS011;5793;52.238;13.438;2022-08-19T05:48:08;15.20;;;13.80;;
11473;SDS011;5793;52.238;13.438;2022-08-19T05:50:37;15.88;;;14.27;;
11473;SDS011;5793;52.238;13.438;2022-08-19T05:53:05;14.73;;;13.27;;
11473;SDS011;5793;52.238;13.438;2022-08-19T05:55:34;16.67;;;14.80;;
11473;SDS011;5793;52.238;13.438;2022-08-19T05:58:04;14.75;;;13.43;;
11473;SDS011;5793;52.238;13.438;2022-08-19T06:00:33;16.05;;;14.05;;
11473;SDS011;5793;52.238;13.438;2022-08-19T06:03:03;15.30;;;13.85;;
11473;SDS011;5793;52.238;13.438;2022-08-19T06:05:37;14.98;;;13.50;;
11473;SDS011;5793;52.238;13.438;2022-08-19T06:08:17;15.75;;;14.05;;
11473;SDS011;5793;52.238;13.438;2022-08-19T06:11:11;17.08;;;13.98;;
11473;SDS011;5793;52.238;13.438;2022-08-19T06:13:41;15.38;;;14.07;;
11473;SDS011;5793;52.238;13.438;2022-08-19T06:16:09;15.30;;;13.80;;
11473;SDS011;5793;52.238;13.438;2022-08-19T06:18:38;15.05;;;13.65;;
11473;SDS011;5793;52.238;13.438;2022-08-19T06:21:05;14.55;;;12.75;;
11473;SDS011;5793;52.238;13.438;2022-08-19T06:23:33;14.43;;;13.15;;
11473;SDS011;5793;52.238;13.438;2022-08-19T06:26:01;14.27;;;12.88;;
11473;SDS011;5793;52.238;13.438;2022-08-19T06:28:30;14.35;;;12.90;;
11473;SDS011;5793;52.238;13.438;2022-08-19T06:30:59;14.82;;;13.32;;
11473;SDS011;5793;52.238;13.438;2022-08-19T06:33:32;13.82;;;12.68;;
11473;SDS011;5793;52.238;13.438;2022-08-19T06:36:02;14.07;;;12.77;;
11473;SDS011;5793;52.238;13.438;2022-08-19T06:38:30;14.32;;;13.02;;
11473;SDS011;5793;52.238;13.438;2022-08-19T06:41:00;14.82;;;13.52;;
11473;SDS011;5793;52.238;13.438;2022-08-19T06:43:33;14.98;;;13.45;;
11473;SDS011;5793;52.238;13.438;2022-08-19T06:46:09;15.88;;;14.25;;
11473;SDS011;5793;52.238;13.438;2022-08-19T06:48:40;14.93;;;13.52;;
11473;SDS011;5793;52.238;13.438;2022-08-19T06:51:12;15.27;;;13.77;;
11473;SDS011;5793;52.238;13.438;2022-08-19T06:53:45;14.60;;;13.20;;
11473;SDS011;5793;52.238;13.438;2022-08-19T06:56:14;14.55;;;13.15;;
11473;SDS011;5793;52.238;13.438;2022-08-19T06:58:42;14.45;;;13.07;;
11473;SDS011;5793;52.238;13.438;2022-08-19T07:01:10;15.50;;;14.00;;
11473;SDS011;5793;52.238;13.438;2022-08-19T07:03:38;14.52;;;13.02;;
11473;SDS011;5793;52.238;13.438;2022-08-19T07:06:07;15.55;;;13.73;;
11473;SDS011;5793;52.238;13.438;2022-08-19T07:08:59;14.30;;;12.90;;
11473;SDS011;5793;52.238;13.438;2022-08-19T07:11:27;14.70;;;13.15;;
11473;SDS011;5793;52.238;13.438;2022-08-19T07:13:55;13.82;;;12.48;;
11473;SDS011;5793;52.238;13.438;2022-08-19T07:16:23;14.68;;;13.27;;
11473;SDS011;5793;52.238;13.438;2022-08-19T07:18:55;12.98;;;11.90;;
11473;SDS011;5793;52.238;13.438;2022-08-19T07:21:25;14.82;;;13.43;;
11473;SDS011;5793;52.238;13.438;2022-08-19T07:23:55;14.43;;;13.00;;
11473;SDS011;5793;52.238;13.438;2022-08-19T07:26:28;14.35;;;13.05;;
11473;SDS011;5793;52.238;13.438;2022-08-19T07:28:57;15.15;;;13.32;;
11473;SDS011;5793;52.238;13.438;2022-08-19T07:31:29;14.18;;;12.88;;
11473;SDS011;5793;52.238;13.438;2022-08-19T07:33:57;14.13;;;12.73;;
11473;SDS011;5793;52.238;13.438;2022-08-19T07:36:25;14.63;;;13.15;;
11473;SDS011;5793;52.238;13.438;2022-08-19T07:38:57;14.82;;;13.02;;
11473;SDS011;5793;52.238;13.438;2022-08-19T07:41:28;14.02;;;12.55;;
11473;SDS011;5793;52.238;13.438;2022-08-19T07:43:57;14.57;;;13.27;;
11473;SDS011;5793;52.238;13.438;2022-08-19T07:46:30;14.82;;;13.20;;
11473;SDS011;5793;52.238;13.438;2022-08-19T07:48:58;15.18;;;13.70;;
11473;SDS011;5793;52.238;13.438;2022-08-19T07:51:27;16.55;;;13.80;;
11473;SDS011;5793;52.238;13.438;2022-08-19T07:54:02;15.15;;;13.60;;
11473;SDS011;5793;52.238;13.438;2022-08-19T07:56:32;15.52;;;14.15;;
11473;SDS011;5793;52.238;13.438;2022-08-19T07:59:00;15.55;;;13.95;;
11473;SDS011;5793;52.238;13.438;2022-08-19T08:01:28;15.05;;;13.43;;
11473;SDS011;5793;52.238;13.438;2022-08-19T08:03:56;15.13;;;13.52;;
11473;SDS011;5793;52.238;13.438;2022-08-19T08:06:42;15.38;;;13.90;;
11473;SDS011;5793;52.238;13.438;2022-08-19T08:09:29;14.43;;;13.13;;
11473;SDS011;5793;52.238;13.438;2022-08-19T08:12:03;15.40;;;13.80;;
11473;SDS011;5793;52.238;13.438;2022-08-19T08:14:53;18.05;;;14.18;;
11473;SDS011;5793;52.238;13.438;2022-08-19T08:17:23;19.13;;;16.20;;
11473;SDS011;5793;52.238;13.438;2022-08-19T08:20:13;15.63;;;14.13;;
11473;SDS011;5793;52.238;13.438;2022-08-19T08:22:42;17.80;;;15.35;;
11473;SDS011;5793;52.238;13.438;2022-08-19T08:25:29;16.10;;;14.60;;
11473;SDS011;5793;52.238;13.438;2022-08-19T08:28:01;16.33;;;14.73;;
11473;SDS011;5793;52.238;13.438;2022-08-19T08:30:30;17.17;;;15.40;;
11473;SDS011;5793;52.238;13.438;2022-08-19T08:33:02;15.93;;;14.32;;
11473;SDS011;5793;52.238;13.438;2022-08-19T08:35:30;17.02;;;15.43;;
11473;SDS011;5793;52.238;13.438;2022-08-19T08:37:59;17.40;;;15.80;;
11473;SDS011;5793;52.238;13.438;2022-08-19T08:40:30;17.48;;;15.77;;
11473;SDS011;5793;52.238;13.438;2022-08-19T08:43:07;18.25;;;16.45;;
11473;SDS011;5793;52.238;13.438;2022-08-19T08:45:42;18.85;;;16.95;;
11473;SDS011;5793;52.238;13.438;2022-08-19T08:48:19;17.33;;;15.55;;
11473;SDS011;5793;52.238;13.438;2022-08-19T08:50:51;19.33;;;17.33;;
11473;SDS011;5793;52.238;13.438;2022-08-19T08:53:21;19.00;;;17.30;;
11473;SDS011;5793;52.238;13.438;2022-08-19T08:55:55;19.92;;;16.20;;
11473;SDS011;5793;52.238;13.438;2022-08-19T08:58:26;17.80;;;16.02;;
11473;SDS011;5793;52.238;13.438;2022-08-19T09:01:09;17.10;;;15.55;;
11473;SDS011;5793;52.238;13.438;2022-08-19T09:03:39;17.33;;;15.52;;
11473;SDS011;5793;52.238;13.438;2022-08-19T09:06:11;16.60;;;15.20;;
11473;SDS011;5793;52.238;13.438;2022-08-19T09:08:47;16.00;;;14.40;;
11473;SDS011;5793;52.238;13.438;2022-08-19T09:11:25;16.33;;;14.52;;
11473;SDS011;5793;52.238;13.438;2022-08-19T09:14:11;15.90;;;14.32;;
11473;SDS011;5793;52.238;13.438;2022-08-19T09:17:07;14.88;;;13.43;;
11473;SDS011;5793;52.238;13.438;2022-08-19T09:19:36;15.45;;;13.88;;
11473;SDS011;5793;52.238;13.438;2022-08-19T09:22:16;16.83;;;14.57;;
11473;SDS011;5793;52.238;13.438;2022-08-19T09:24:51;15.88;;;14.23;;
11473;SDS011;5793;52.238;13.438;2022-08-19T09:27:20;16.17;;;14.48;;
11473;SDS011;5793;52.238;13.438;2022-08-19T09:30:10;18.83;;;15.10;;
11473;SDS011;5793;52.238;13.438;2022-08-19T09:32:41;17.33;;;15.73;;
11473;SDS011;5793;52.238;13.438;2022-08-19T09:35:09;19.85;;;17.98;;
11473;SDS011;5793;52.238;13.438;2022-08-19T09:37:38;18.30;;;16.58;;
11473;SDS011;5793;52.238;13.438;2022-08-19T09:40:08;19.52;;;17.73;;
11473;SDS011;5793;52.238;13.438;2022-08-19T09:42:37;18.83;;;17.17;;
11473;SDS011;5793;52.238;13.438;2022-08-19T09:45:19;19.55;;;17.75;;
11473;SDS011;5793;52.238;13.438;2022-08-19T09:47:49;19.98;;;18.10;;
11473;SDS011;5793;52.238;13.438;2022-08-19T09:50:20;21.33;;;19.13;;
11473;SDS011;5793;52.238;13.438;2022-08-19T09:52:49;22.17;;;19.98;;
11473;SDS011;5793;52.238;13.438;2022-08-19T09:55:23;20.08;;;18.35;;
11473;SDS011;5793;52.238;13.438;2022-08-19T09:57:58;22.65;;;20.50;;
11473;SDS011;5793;52.238;13.438;2022-08-19T10:00:28;21.20;;;19.23;;
11473;SDS011;5793;52.238;13.438;2022-08-19T10:02:57;22.83;;;20.65;;
11473;SDS011;5793;52.238;13.438;2022-08-19T10:05:26;22.67;;;20.63;;
11473;SDS011;5793;52.238;13.438;2022-08-19T10:08:14;23.45;;;20.48;;
11473;SDS011;5793;52.238;13.438;2022-08-19T10:10:43;24.48;;;22.27;;
11473;SDS011;5793;52.238;13.438;2022-08-19T10:13:13;21.90;;;19.85;;
11473;SDS011;5793;52.238;13.438;2022-08-19T10:15:44;23.60;;;20.80;;
11473;SDS011;5793;52.238;13.438;2022-08-19T10:18:14;22.90;;;20.80;;
11473;SDS011;5793;52.238;13.438;2022-08-19T10:20:42;24.63;;;22.05;;
11473;SDS011;5793;52.238;13.438;2022-08-19T10:23:17;25.77;;;23.17;;
11473;SDS011;5793;52.238;13.438;2022-08-19T10:25:45;23.98;;;21.88;;
11473;SDS011;5793;52.238;13.438;2022-08-19T10:28:13;24.00;;;21.80;;
11473;SDS011;5793;52.238;13.438;2022-08-19T10:30:46;24.17;;;21.88;;
11473;SDS011;5793;52.238;13.438;2022-08-19T10:33:14;24.00;;;21.65;;
11473;SDS011;5793;52.238;13.438;2022-08-19T10:36:03;24.70;;;22.30;;
11473;SDS011;5793;52.238;13.438;2022-08-19T10:38:33;23.10;;;20.98;;
11473;SDS011;5793;52.238;13.438;2022-08-19T10:41:08;21.25;;;19.25;;
11473;SDS011;5793;52.238;13.438;2022-08-19T10:43:38;18.58;;;16.85;;
11473;SDS011;5793;52.238;13.438;2022-08-19T10:46:08;19.25;;;17.40;;
11473;SDS011;5793;52.238;13.438;2022-08-19T10:48:41;19.15;;;17.15;;
11473;SDS011;5793;52.238;13.438;2022-08-19T10:51:10;18.30;;;16.52;;
11473;SDS011;5793;52.238;13.438;2022-08-19T10:53:56;18.02;;;16.25;;
11473;SDS011;5793;52.238;13.438;2022-08-19T10:56:25;16.13;;;14.73;;
11473;SDS011;5793;52.238;13.438;2022-08-19T10:59:17;17.00;;;15.32;;
11473;SDS011;5793;52.238;13.438;2022-08-19T11:01:53;14.90;;;13.63;;
11473;SDS011;5793;52.238;13.438;2022-08-19T11:04:25;16.25;;;14.75;;
11473;SDS011;5793;52.238;13.438;2022-08-19T11:06:55;16.40;;;14.98;;
11473;SDS011;5793;52.238;13.438;2022-08-19T11:09:24;16.65;;;15.02;;
11473;SDS011;5793;52.238;13.438;2022-08-19T11:11:59;21.15;;;19.15;;
11473;SDS011;5793;52.238;13.438;2022-08-19T11:14:30;25.10;;;22.60;;
11473;SDS011;5793;52.238;13.438;2022-08-19T11:17:01;25.17;;;22.73;;
11473;SDS011;5793;52.238;13.438;2022-08-19T11:19:30;27.30;;;24.48;;
11473;SDS011;5793;52.238;13.438;2022-08-19T11:21:58;29.60;;;24.65;;
11473;SDS011;5793;52.238;13.438;2022-08-19T11:24:29;27.05;;;24.30;;
11473;SDS011;5793;52.238;13.438;2022-08-19T11:27:00;23.90;;;21.65;;
11473;SDS011;5793;52.238;13.438;2022-08-19T11:29:31;26.30;;;23.58;;
11473;SDS011;5793;52.238;13.438;2022-08-19T11:32:04;26.42;;;23.92;;
11473;SDS011;5793;52.238;13.438;2022-08-19T11:34:33;28.02;;;25.13;;
11473;SDS011;5793;52.238;13.438;2022-08-19T11:37:02;26.83;;;24.20;;
11473;SDS011;5793;52.238;13.438;2022-08-19T11:39:32;24.92;;;22.42;;
11473;SDS011;5793;52.238;13.438;2022-08-19T11:42:02;26.95;;;24.30;;
11473;SDS011;5793;52.238;13.438;2022-08-19T11:44:52;25.20;;;22.58;;
11473;SDS011;5793;52.238;13.438;2022-08-19T11:47:21;25.73;;;23.25;;
11473;SDS011;5793;52.238;13.438;2022-08-19T11:49:49;23.73;;;21.42;;
11473;SDS011;5793;52.238;13.438;2022-08-19T11:52:17;24.52;;;22.17;;
11473;SDS011;5793;52.238;13.438;2022-08-19T11:54:45;25.25;;;22.58;;
11473;SDS011;5793;52.238;13.438;2022-08-19T11:57:13;23.92;;;21.52;;
11473;SDS011;5793;52.238;13.438;2022-08-19T11:59:47;25.75;;;23.05;;
11473;SDS011;5793;52.238;13.438;2022-08-19T12:02:16;26.30;;;23.70;;
11473;SDS011;5793;52.238;13.438;2022-08-19T12:04:46;23.63;;;21.38;;
11473;SDS011;5793;52.238;13.438;2022-08-19T12:07:14;25.40;;;22.85;;
11473;SDS011;5793;52.238;13.438;2022-08-19T12:09:42;26.75;;;24.00;;
11473;SDS011;5793;52.238;13.438;2022-08-19T12:12:13;28.27;;;25.38;;
11473;SDS011;5793;52.238;13.438;2022-08-19T12:14:41;26.92;;;24.33;;
11473;SDS011;5793;52.238;13.438;2022-08-19T12:17:09;26.33;;;23.63;;
11473;SDS011;5793;52.238;13.438;2022-08-19T12:19:39;27.17;;;24.48;;
11473;SDS011;5793;52.238;13.438;2022-08-19T12:22:08;27.10;;;24.50;;
11473;SDS011;5793;52.238;13.438;2022-08-19T12:24:36;29.08;;;25.90;;
11473;SDS011;5793;52.238;13.438;2022-08-19T12:27:04;28.55;;;25.75;;
11473;SDS011;5793;52.238;13.438;2022-08-19T12:29:38;27.60;;;24.83;;
11473;SDS011;5793;52.238;13.438;2022-08-19T12:32:06;26.95;;;24.08;;
11473;SDS011;5793;52.238;13.438;2022-08-19T12:34:37;28.58;;;25.58;;
11473;SDS011;5793;52.238;13.438;2022-08-19T12:37:05;26.38;;;23.85;;
11473;SDS011;5793;52.238;13.438;2022-08-19T12:39:35;29.48;;;26.48;;
11473;SDS011;5793;52.238;13.438;2022-08-19T12:42:05;29.42;;;26.23;;
11473;SDS011;5793;52.238;13.438;2022-08-19T12:44:35;27.33;;;23.67;;
11473;SDS011;5793;52.238;13.438;2022-08-19T12:47:05;27.75;;;25.05;;
11473;SDS011;5793;52.238;13.438;2022-08-19T12:49:35;26.48;;;23.77;;
11473;SDS011;5793;52.238;13.438;2022-08-19T12:52:22;27.15;;;24.45;;
11473;SDS011;5793;52.238;13.438;2022-08-19T12:54:51;25.17;;;22.67;;
11473;SDS011;5793;52.238;13.438;2022-08-19T12:57:20;24.42;;;22.17;;
11473;SDS011;5793;52.238;13.438;2022-08-19T12:59:58;25.20;;;22.63;;
11473;SDS011;5793;52.238;13.438;2022-08-19T13:02:29;24.52;;;22.20;;
11473;SDS011;5793;52.238;13.438;2022-08-19T13:05:04;24.23;;;21.65;;
11473;SDS011;5793;52.238;13.438;2022-08-19T13:07:35;23.83;;;21.35;;
11473;SDS011;5793;52.238;13.438;2022-08-19T13:10:05;24.98;;;22.45;;
11473;SDS011;5793;52.238;13.438;2022-08-19T13:12:34;25.30;;;22.67;;
11473;SDS011;5793;52.238;13.438;2022-08-19T13:15:02;25.55;;;23.15;;
11473;SDS011;5793;52.238;13.438;2022-08-19T13:17:36;25.15;;;22.50;;
11473;SDS011;5793;52.238;13.438;2022-08-19T13:20:05;25.85;;;23.05;;
11473;SDS011;5793;52.238;13.438;2022-08-19T13:22:37;23.70;;;21.42;;
11473;SDS011;5793;52.238;13.438;2022-08-19T13:25:05;25.00;;;22.33;;
11473;SDS011;5793;52.238;13.438;2022-08-19T13:27:34;26.77;;;23.67;;
11473;SDS011;5793;52.238;13.438;2022-08-19T13:30:03;23.67;;;21.27;;
11473;SDS011;5793;52.238;13.438;2022-08-19T13:32:50;23.48;;;21.10;;
11473;SDS011;5793;52.238;13.438;2022-08-19T13:35:36;22.83;;;20.63;;
11473;SDS011;5793;52.238;13.438;2022-08-19T13:38:05;21.92;;;19.73;;
11473;SDS011;5793;52.238;13.438;2022-08-19T13:40:37;22.27;;;19.88;;
11473;SDS011;5793;52.238;13.438;2022-08-19T13:43:06;22.10;;;19.90;;
11473;SDS011;5793;52.238;13.438;2022-08-19T13:45:48;22.60;;;20.20;;
11473;SDS011;5793;52.238;13.438;2022-08-19T13:48:16;22.70;;;19.20;;
11473;SDS011;5793;52.238;13.438;2022-08-19T13:50:45;20.40;;;18.30;;
11473;SDS011;5793;52.238;13.438;2022-08-19T13:53:15;20.90;;;18.90;;
11473;SDS011;5793;52.238;13.438;2022-08-19T13:55:44;20.23;;;18.23;;
11473;SDS011;5793;52.238;13.438;2022-08-19T13:58:12;18.10;;;16.50;;
11473;SDS011;5793;52.238;13.438;2022-08-19T14:00:41;19.50;;;17.70;;
11473;SDS011;5793;52.238;13.438;2022-08-19T14:03:11;19.20;;;17.33;;
11473;SDS011;5793;52.238;13.438;2022-08-19T14:05:39;19.23;;;17.23;;
11473;SDS011;5793;52.238;13.438;2022-08-19T14:08:07;18.17;;;16.48;;
11473;SDS011;5793;52.238;13.438;2022-08-19T14:10:36;18.13;;;16.27;;
11473;SDS011;5793;52.238;13.438;2022-08-19T14:13:04;16.95;;;15.25;;
11473;SDS011;5793;52.238;13.438;2022-08-19T14:15:32;16.92;;;15.43;;
11473;SDS011;5793;52.238;13.438;2022-08-19T14:18:00;17.25;;;15.73;;
11473;SDS011;5793;52.238;13.438;2022-08-19T14:20:28;16.60;;;15.10;;
11473;SDS011;5793;52.238;13.438;2022-08-19T14:22:56;17.25;;;15.55;;
11473;SDS011;5793;52.238;13.438;2022-08-19T14:25:26;16.27;;;14.77;;
11473;SDS011;5793;52.238;13.438;2022-08-19T14:27:58;15.10;;;13.60;;
11473;SDS011;5793;52.238;13.438;2022-08-19T14:30:27;15.73;;;14.32;;
11473;SDS011;5793;52.238;13.438;2022-08-19T14:32:56;15.65;;;14.25;;
11473;SDS011;5793;52.238;13.438;2022-08-19T14:35:26;15.02;;;13.45;;
11473;SDS011;5793;52.238;13.438;2022-08-19T14:37:54;15.00;;;13.63;;
11473;SDS011;5793;52.238;13.438;2022-08-19T14:40:25;14.88;;;13.48;;
11473;SDS011;5793;52.238;13.438;2022-08-19T14:42:55;14.77;;;13.48;;
11473;SDS011;5793;52.238;13.438;2022-08-19T14:45:30;15.82;;;14.35;;